Time;durP1;ratioP1;P1;durP2;ratioP2;P2;SDS_P1;SDS_P2;PMS_P1;PMS_P2;Temp;Humidity;BMP_temperature;BMP_pressure;BME280_temperature;BME280_humidity;BME280_pressure;Samples;Min_cycle;Max_cycle;Signal;HPM_P1;HPM_P2
2023/03/03 00:01:55;;;;;;;118.70;24.38;;;3.10;99.90;;;;;;5006018;28;20050;-82
2023/03/03 00:04:21;;;;;;;102.63;26.27;;;3.10;99.90;;;;;;4988962;28;20085;-83
2023/03/03 00:06:47;;;;;;;55.08;21.80;;;3.20;99.90;;;;;;4988961;28;20046;-83
2023/03/03 00:09:18;;;;;;;152.65;25.75;;;3.30;99.90;;;;;;5080359;28;20057;-82
2023/03/03 00:11:48;;;;;;;98.53;23.25;;;3.20;99.90;;;;;;4981643;28;20050;-83
2023/03/03 00:14:23;;;;;;;107.15;25.38;;;3.20;99.90;;;;;;4984924;28;20066;-83
2023/03/03 00:16:48;;;;;;;60.25;20.38;;;3.30;99.90;;;;;;4987737;28;20088;-83
2023/03/03 00:19:17;;;;;;;145.73;28.60;;;3.10;99.90;;;;;;4983127;28;20045;-83
2023/03/03 00:21:45;;;;;;;136.60;26.70;;;3.20;99.90;;;;;;4991653;28;20053;-83
2023/03/03 00:24:24;;;;;;;58.97;20.65;;;3.30;99.90;;;;;;5060976;28;20040;-83
2023/03/03 00:26:54;;;;;;;49.30;19.77;;;3.20;99.90;;;;;;4994638;28;20047;-83
2023/03/03 00:29:27;;;;;;;144.55;21.35;;;3.20;99.90;;;;;;5049165;28;20062;-83
2023/03/03 00:31:54;;;;;;;72.07;18.42;;;3.30;99.90;;;;;;5005545;28;20040;-83
2023/03/03 00:34:25;;;;;;;97.95;17.23;;;3.30;99.90;;;;;;5043568;28;20038;-83
2023/03/03 00:36:54;;;;;;;204.07;23.27;;;3.20;99.90;;;;;;4976363;28;20038;-83
2023/03/03 00:39:36;;;;;;;81.32;16.85;;;3.20;99.90;;;;;;4993618;28;20486;-83
2023/03/03 00:42:16;;;;;;;84.13;16.63;;;3.10;99.90;;;;;;5062400;28;20057;-83
2023/03/03 00:44:47;;;;;;;222.45;23.17;;;3.30;99.90;;;;;;4994812;28;20513;-83
2023/03/03 00:47:35;;;;;;;83.65;16.38;;;3.10;99.90;;;;;;4988993;28;20190;-83
2023/03/03 00:50:10;;;;;;;87.95;16.42;;;3.10;99.90;;;;;;4986852;28;20038;-83
2023/03/03 00:52:38;;;;;;;142.68;19.60;;;3.20;99.90;;;;;;4980474;28;20121;-83
2023/03/03 00:55:06;;;;;;;114.15;15.63;;;3.00;99.90;;;;;;4987504;28;20039;-83
2023/03/03 00:57:31;;;;;;;119.07;18.65;;;3.00;99.90;;;;;;4997144;28;20704;-83
2023/03/03 00:59:57;;;;;;;111.38;16.05;;;2.90;99.90;;;;;;4974724;28;20050;-83
2023/03/03 01:02:23;;;;;;;104.25;17.77;;;3.10;99.90;;;;;;4971116;28;20038;-83
2023/03/03 01:04:51;;;;;;;71.68;15.65;;;3.10;99.90;;;;;;4968136;28;20053;-82
2023/03/03 01:07:17;;;;;;;169.88;23.17;;;3.10;99.90;;;;;;4991326;28;20246;-83
2023/03/03 01:09:43;;;;;;;271.73;25.98;;;3.10;99.90;;;;;;4969598;28;20042;-83
2023/03/03 01:12:10;;;;;;;137.65;21.45;;;3.10;99.90;;;;;;5054769;28;20543;-83
2023/03/03 01:14:36;;;;;;;63.83;17.02;;;3.10;99.90;;;;;;4978733;28;20046;-83
2023/03/03 01:17:02;;;;;;;108.15;18.67;;;3.20;99.90;;;;;;4963632;28;20039;-83
2023/03/03 01:19:28;;;;;;;74.57;20.02;;;3.10;99.90;;;;;;4979750;28;20238;-83
2023/03/03 01:21:54;;;;;;;97.95;19.25;;;3.10;99.90;;;;;;4978935;28;20657;-83
2023/03/03 01:24:20;;;;;;;62.13;16.83;;;3.10;99.90;;;;;;4961244;28;20049;-83
2023/03/03 01:26:46;;;;;;;122.72;20.65;;;3.20;99.90;;;;;;4966710;28;20432;-83
2023/03/03 01:29:11;;;;;;;110.45;18.70;;;3.20;99.90;;;;;;4968467;28;20069;-83
2023/03/03 01:31:38;;;;;;;49.97;16.63;;;3.20;99.90;;;;;;5040810;28;20050;-83
2023/03/03 01:34:04;;;;;;;52.35;15.95;;;3.20;99.90;;;;;;4997655;28;20454;-83
2023/03/03 01:36:29;;;;;;;155.45;21.27;;;3.30;99.90;;;;;;5003274;28;20265;-83
2023/03/03 01:38:55;;;;;;;80.07;17.42;;;3.20;99.90;;;;;;5058008;28;20146;-83
2023/03/03 01:41:21;;;;;;;130.90;20.25;;;3.20;99.90;;;;;;4981565;28;20140;-83
2023/03/03 01:43:49;;;;;;;100.13;18.13;;;3.30;99.90;;;;;;5058214;28;20053;-83
2023/03/03 01:46:23;;;;;;;180.70;22.42;;;3.20;99.90;;;;;;4982224;28;20603;-83
2023/03/03 01:48:51;;;;;;;;;;;3.20;99.90;;;;;;4972150;28;20440;-83
2023/03/03 01:51:25;;;;;;;261.10;25.15;;;3.30;99.90;;;;;;5073186;28;19965;-83
2023/03/03 01:53:53;;;;;;;280.30;24.88;;;3.20;99.90;;;;;;4980749;28;20043;-83
2023/03/03 01:56:19;;;;;;;248.13;25.45;;;3.00;99.90;;;;;;4982671;28;20049;-83
2023/03/03 01:58:57;;;;;;;263.90;25.15;;;3.10;99.90;;;;;;5004533;28;20038;-83
2023/03/03 02:01:26;;;;;;;291.05;24.77;;;2.90;99.90;;;;;;4992470;28;20044;-83
2023/03/03 02:03:52;;;;;;;123.15;18.30;;;3.00;99.90;;;;;;4981928;28;20295;-83
2023/03/03 02:06:21;;;;;;;99.00;19.25;;;2.90;99.90;;;;;;5043346;28;20046;-83
2023/03/03 02:09:24;;;;;;;66.28;15.40;;;2.90;99.90;;;;;;5059598;28;20429;-83
2023/03/03 02:11:58;;;;;;;76.30;17.80;;;3.10;99.90;;;;;;4986999;28;20038;-83
2023/03/03 02:14:24;;;;;;;186.52;21.70;;;3.20;99.90;;;;;;5055123;28;20201;-83
2023/03/03 02:16:50;;;;;;;109.30;17.88;;;2.90;99.90;;;;;;4986402;28;20036;-82
2023/03/03 02:19:50;;;;;;;210.57;25.80;;;3.00;99.90;;;;;;5003755;28;20042;-83
2023/03/03 02:22:21;;;;;;;321.50;28.08;;;3.10;99.90;;;;;;4982590;28;20086;-83
2023/03/03 02:24:52;;;;;;;458.33;35.33;;;3.10;99.90;;;;;;5044162;28;20224;-83
2023/03/03 02:27:18;;;;;;;97.30;15.55;;;3.00;99.90;;;;;;5045668;28;20050;-83
2023/03/03 02:29:44;;;;;;;49.65;15.48;;;3.00;99.90;;;;;;5042951;28;20179;-83
2023/03/03 02:32:09;;;;;;;309.75;28.45;;;3.10;99.90;;;;;;4988353;28;20043;-83
2023/03/03 02:34:49;;;;;;;273.27;26.85;;;3.00;99.90;;;;;;5075111;28;21270;-83
2023/03/03 02:37:16;;;;;;;135.85;21.67;;;3.00;99.90;;;;;;4976685;28;20465;-83
2023/03/03 02:39:42;;;;;;;419.95;36.53;;;3.00;99.90;;;;;;5008231;28;20687;-83
2023/03/03 02:42:22;;;;;;;360.05;31.85;;;3.10;99.90;;;;;;5041779;28;20039;-83
2023/03/03 02:44:48;;;;;;;223.13;21.40;;;3.10;99.90;;;;;;4992259;28;20063;-83
2023/03/03 02:47:14;;;;;;;393.08;38.22;;;3.20;99.90;;;;;;4995721;28;20380;-83
2023/03/03 02:49:41;;;;;;;273.42;30.55;;;3.20;99.90;;;;;;5002608;28;20108;-83
2023/03/03 02:52:09;;;;;;;108.45;18.88;;;2.90;99.90;;;;;;4987189;28;20040;-83
2023/03/03 02:54:35;;;;;;;271.10;26.35;;;3.00;99.90;;;;;;4982975;28;20042;-82
2023/03/03 02:57:01;;;;;;;337.83;28.85;;;2.90;99.90;;;;;;4988837;28;20596;-83
2023/03/03 02:59:27;;;;;;;237.18;25.20;;;2.80;99.90;;;;;;4999041;28;20050;-83
2023/03/03 03:01:52;;;;;;;351.98;27.50;;;2.80;99.90;;;;;;4977718;28;20046;-83
2023/03/03 03:04:21;;;;;;;234.23;26.27;;;3.00;99.90;;;;;;4989666;28;20042;-83
2023/03/03 03:06:47;;;;;;;352.20;28.80;;;2.90;99.90;;;;;;4968301;28;20046;-83
2023/03/03 03:09:15;;;;;;;176.38;20.92;;;2.90;99.90;;;;;;5006097;28;20088;-83
2023/03/03 03:11:41;;;;;;;226.63;23.17;;;2.80;99.90;;;;;;5005782;28;20046;-83
2023/03/03 03:14:08;;;;;;;450.80;32.83;;;3.00;99.90;;;;;;5061984;28;20125;-83
2023/03/03 03:16:34;;;;;;;300.50;28.35;;;2.90;99.90;;;;;;5006723;28;20497;-83
2023/03/03 03:19:01;;;;;;;413.63;31.10;;;2.70;99.90;;;;;;4984920;28;20040;-82
2023/03/03 03:21:26;;;;;;;406.95;32.42;;;2.90;99.90;;;;;;5009227;28;20064;-83
2023/03/03 03:23:55;;;;;;;356.20;28.67;;;2.60;99.90;;;;;;5041011;28;20401;-83
2023/03/03 03:26:21;;;;;;;238.60;22.42;;;2.80;99.90;;;;;;4992990;28;20052;-83
2023/03/03 03:28:48;;;;;;;277.17;24.45;;;2.70;99.90;;;;;;4991653;28;20054;-83
2023/03/03 03:31:14;;;;;;;302.30;23.60;;;2.60;99.90;;;;;;4975579;28;20151;-83
2023/03/03 03:33:41;;;;;;;253.75;20.35;;;2.60;99.90;;;;;;5003572;28;20034;-83
2023/03/03 03:36:08;;;;;;;327.20;22.90;;;2.50;99.90;;;;;;4982272;28;20186;-82
2023/03/03 03:38:35;;;;;;;272.33;19.98;;;2.10;99.90;;;;;;4979807;28;20446;-83
2023/03/03 03:41:02;;;;;;;255.90;22.15;;;2.10;99.90;;;;;;4989861;28;20540;-83
2023/03/03 03:43:28;;;;;;;184.88;17.08;;;2.10;99.90;;;;;;5038388;28;20066;-82
2023/03/03 03:45:54;;;;;;;288.17;23.48;;;2.00;99.90;;;;;;4981981;28;20070;-83
2023/03/03 03:48:20;;;;;;;371.00;27.65;;;2.10;99.90;;;;;;5004001;28;20464;-82
2023/03/03 03:50:47;;;;;;;317.48;21.83;;;2.00;99.90;;;;;;4984429;28;20162;-83
2023/03/03 03:53:18;;;;;;;267.48;18.73;;;1.90;99.90;;;;;;5056514;28;20232;-83
2023/03/03 03:55:44;;;;;;;250.63;16.10;;;1.90;99.90;;;;;;5058966;28;20129;-82
2023/03/03 03:58:14;;;;;;;222.48;14.65;;;1.70;99.90;;;;;;4972062;28;20027;-82
2023/03/03 04:00:45;;;;;;;218.63;17.05;;;1.80;99.90;;;;;;4987871;28;20028;-83
2023/03/03 04:03:13;;;;;;;178.05;12.95;;;1.70;99.90;;;;;;4992423;28;20359;-82
2023/03/03 04:05:38;;;;;;;178.55;13.18;;;1.60;99.90;;;;;;5057639;28;20050;-82
2023/03/03 04:08:04;;;;;;;177.27;13.30;;;1.60;99.90;;;;;;4964860;28;20034;-82
2023/03/03 04:10:30;;;;;;;173.18;12.45;;;1.50;99.90;;;;;;4969168;28;20054;-82
2023/03/03 04:12:56;;;;;;;142.27;10.52;;;1.40;99.90;;;;;;5039672;28;20070;-82
2023/03/03 04:15:24;;;;;;;216.40;14.20;;;1.40;99.90;;;;;;4985648;28;20701;-83
2023/03/03 04:17:50;;;;;;;120.65;11.02;;;1.30;99.90;;;;;;4980323;28;20045;-82
2023/03/03 04:20:16;;;;;;;91.43;9.80;;;1.10;99.90;;;;;;4984208;28;20038;-83
2023/03/03 04:22:42;;;;;;;116.00;9.82;;;1.10;99.90;;;;;;4974904;28;20409;-82
2023/03/03 04:25:16;;;;;;;80.05;9.38;;;0.90;99.90;;;;;;4968341;28;20035;-82
2023/03/03 04:27:42;;;;;;;90.60;9.65;;;1.00;99.90;;;;;;4977815;28;20779;-83
2023/03/03 04:30:09;;;;;;;111.80;14.32;;;0.80;99.90;;;;;;4979472;28;20051;-82
2023/03/03 04:32:35;;;;;;;94.18;9.68;;;0.80;99.90;;;;;;5054300;28;20053;-82
2023/03/03 04:35:01;;;;;;;104.25;10.35;;;0.70;99.90;;;;;;4966400;28;20042;-83
2023/03/03 04:37:27;;;;;;;100.90;11.90;;;0.80;99.90;;;;;;4963485;28;20126;-83
2023/03/03 04:39:56;;;;;;;111.90;10.77;;;0.70;99.90;;;;;;4978255;28;20123;-83
2023/03/03 04:42:23;;;;;;;142.98;12.60;;;0.50;99.90;;;;;;4975492;28;20563;-83
2023/03/03 04:44:48;;;;;;;158.27;13.77;;;0.50;99.90;;;;;;5067910;28;20051;-83
2023/03/03 04:47:14;;;;;;;131.85;10.45;;;0.40;99.90;;;;;;4978250;28;20059;-82
2023/03/03 04:49:40;;;;;;;134.95;12.10;;;0.40;99.90;;;;;;4973728;28;20126;-82
2023/03/03 04:52:05;;;;;;;151.88;14.27;;;0.40;99.90;;;;;;5074271;28;20049;-82
2023/03/03 04:54:31;;;;;;;222.18;13.25;;;0.30;99.90;;;;;;4961064;28;20221;-83
2023/03/03 04:56:59;;;;;;;160.90;14.55;;;0.40;99.90;;;;;;4985948;28;20529;-83
2023/03/03 04:59:25;;;;;;;169.15;12.40;;;0.30;99.90;;;;;;4993374;28;20030;-83
2023/03/03 05:01:50;;;;;;;163.77;12.48;;;0.20;99.90;;;;;;4972001;28;20591;-83
2023/03/03 05:04:16;;;;;;;161.95;14.38;;;0.20;99.90;;;;;;4976296;28;20038;-83
2023/03/03 05:06:42;;;;;;;179.88;13.30;;;0.20;99.90;;;;;;4962213;28;20038;-83
2023/03/03 05:09:08;;;;;;;146.35;12.07;;;0.10;99.90;;;;;;4974829;28;20477;-83
2023/03/03 05:11:34;;;;;;;154.45;12.73;;;0.20;99.90;;;;;;4964247;28;20121;-83
2023/03/03 05:14:01;;;;;;;128.55;12.88;;;0.00;99.90;;;;;;4969646;28;20117;-83
2023/03/03 05:16:27;;;;;;;209.63;15.05;;;0.20;99.90;;;;;;4991050;28;20108;-84
2023/03/03 05:18:53;;;;;;;95.63;11.50;;;0.20;99.90;;;;;;4983216;28;20046;-83
2023/03/03 05:21:19;;;;;;;134.00;12.20;;;0.00;99.90;;;;;;4985367;28;20046;-84
2023/03/03 05:23:44;;;;;;;91.63;10.43;;;0.00;99.90;;;;;;4984316;28;20050;-83
2023/03/03 05:26:10;;;;;;;99.05;10.98;;;0.00;99.90;;;;;;4964033;28;20149;-84
2023/03/03 05:28:36;;;;;;;107.15;10.73;;;0.10;99.90;;;;;;5043631;28;20623;-84
2023/03/03 05:31:01;;;;;;;97.07;9.57;;;0.00;99.90;;;;;;5052366;28;20051;-83
2023/03/03 05:33:27;;;;;;;82.60;10.65;;;0.10;99.90;;;;;;4981216;28;20459;-83
2023/03/03 05:35:56;;;;;;;105.82;11.55;;;0.10;99.90;;;;;;4981140;28;20081;-84
2023/03/03 05:38:23;;;;;;;133.40;13.13;;;0.00;99.90;;;;;;4981909;28;20436;-84
2023/03/03 05:40:53;;;;;;;94.78;11.70;;;0.00;99.90;;;;;;5002332;28;20046;-84
2023/03/03 05:43:19;;;;;;;77.78;9.02;;;-0.20;99.90;;;;;;5000873;28;20040;-84
2023/03/03 05:45:53;;;;;;;43.65;7.78;;;-0.20;99.90;;;;;;4987096;28;20109;-83
2023/03/03 05:48:19;;;;;;;37.85;8.45;;;-0.10;99.90;;;;;;5017025;28;20406;-83
2023/03/03 05:50:44;;;;;;;38.28;8.50;;;-0.20;99.90;;;;;;4980295;28;20030;-83
2023/03/03 05:53:10;;;;;;;33.10;8.23;;;-0.40;99.90;;;;;;4985919;28;20227;-83
2023/03/03 05:55:36;;;;;;;25.88;7.80;;;-0.30;99.90;;;;;;4992540;28;20611;-84
2023/03/03 05:58:04;;;;;;;36.25;8.65;;;-0.50;99.90;;;;;;4983626;28;20060;-84
2023/03/03 06:00:29;;;;;;;39.70;8.25;;;-0.40;99.90;;;;;;4981319;28;20468;-84
2023/03/03 06:02:55;;;;;;;21.25;8.25;;;-0.60;99.90;;;;;;4989338;28;20038;-84
2023/03/03 06:05:21;;;;;;;28.50;7.57;;;-0.50;99.90;;;;;;4986367;28;20061;-85
2023/03/03 06:07:48;;;;;;;25.98;9.43;;;-0.50;99.90;;;;;;4969094;28;20513;-84
2023/03/03 06:10:13;;;;;;;26.15;8.63;;;-0.60;99.90;;;;;;4994608;28;20096;-82
2023/03/03 06:12:40;;;;;;;25.67;9.00;;;-0.50;99.90;;;;;;4967950;28;20489;-82
2023/03/03 06:15:08;;;;;;;31.70;8.77;;;-0.60;99.90;;;;;;4993839;28;20046;-82
2023/03/03 06:17:34;;;;;;;28.58;8.65;;;-0.50;99.90;;;;;;5005658;28;20085;-82
2023/03/03 06:19:59;;;;;;;29.52;8.80;;;-0.70;99.90;;;;;;4980386;28;20565;-82
2023/03/03 06:22:25;;;;;;;20.45;8.07;;;-0.70;99.90;;;;;;4988426;28;20035;-82
2023/03/03 06:24:51;;;;;;;14.27;7.70;;;-0.60;99.90;;;;;;4982448;28;20099;-81
2023/03/03 06:27:17;;;;;;;17.20;7.13;;;-0.80;99.90;;;;;;5059933;28;20064;-81
2023/03/03 06:29:43;;;;;;;13.23;7.65;;;-0.60;99.90;;;;;;5081675;28;20067;-81
2023/03/03 06:32:10;;;;;;;13.90;8.13;;;-0.50;99.90;;;;;;5008995;28;20052;-81
2023/03/03 06:34:35;;;;;;;15.27;8.13;;;-0.60;99.90;;;;;;4982767;28;20031;-81
2023/03/03 06:37:01;;;;;;;15.95;7.30;;;-0.50;99.90;;;;;;4979664;28;20035;-81
2023/03/03 06:39:27;;;;;;;17.50;7.80;;;-0.70;99.90;;;;;;5026997;28;20459;-82
2023/03/03 06:41:52;;;;;;;20.38;7.80;;;-0.50;99.90;;;;;;4985666;28;20053;-81
2023/03/03 06:44:18;;;;;;;21.60;7.97;;;-0.60;99.90;;;;;;4996629;28;20465;-81
2023/03/03 06:46:44;;;;;;;17.88;9.45;;;-0.60;99.90;;;;;;4980167;28;20045;-81
2023/03/03 06:49:09;;;;;;;35.60;9.73;;;-0.60;99.90;;;;;;5014515;28;20036;-81
2023/03/03 06:51:40;;;;;;;20.02;8.10;;;-0.60;99.90;;;;;;5004362;28;20470;-82
2023/03/03 06:54:20;;;;;;;23.10;8.85;;;-0.40;99.90;;;;;;4992735;28;20206;-81
2023/03/03 06:56:48;;;;;;;19.38;8.10;;;-0.40;99.90;;;;;;4991296;28;20107;-81
2023/03/03 06:59:19;;;;;;;13.55;8.27;;;-0.30;99.90;;;;;;5001190;28;20489;-81
2023/03/03 07:01:47;;;;;;;22.88;8.32;;;-0.40;99.90;;;;;;4987284;28;20168;-81
2023/03/03 07:04:33;;;;;;;15.45;7.72;;;-0.40;99.90;;;;;;5064400;28;20115;-81
2023/03/03 07:07:25;;;;;;;35.03;8.57;;;0.00;99.90;;;;;;4965164;28;20041;-81
2023/03/03 07:09:54;;;;;;;21.17;9.95;;;0.20;99.90;;;;;;4962672;28;20054;-81
2023/03/03 07:12:27;;;;;;;19.20;9.68;;;0.10;99.90;;;;;;5041815;28;20054;-82
2023/03/03 07:15:12;;;;;;;24.40;13.25;;;0.30;99.90;;;;;;5002582;28;20651;-82
2023/03/03 07:17:44;;;;;;;29.73;16.52;;;0.50;99.90;;;;;;4995528;28;20579;-82
2023/03/03 07:20:22;;;;;;;16.67;9.98;;;0.40;99.90;;;;;;4976453;28;20121;-81
2023/03/03 07:22:52;;;;;;;19.00;11.90;;;0.50;99.90;;;;;;5001187;28;20038;-82
2023/03/03 07:25:34;;;;;;;15.25;10.50;;;0.50;99.90;;;;;;4973666;28;20034;-82
2023/03/03 07:28:21;;;;;;;15.82;9.45;;;0.50;99.90;;;;;;5062879;28;20039;-82
2023/03/03 07:30:47;;;;;;;10.80;7.97;;;0.60;99.90;;;;;;5006671;28;20047;-82
2023/03/03 07:33:44;;;;;;;14.77;9.35;;;0.60;99.90;;;;;;4986269;28;20048;-82
2023/03/03 07:36:34;;;;;;;12.85;8.93;;;0.70;99.90;;;;;;4976154;28;20393;-83
2023/03/03 07:39:04;;;;;;;13.13;8.40;;;0.90;99.90;;;;;;4975983;28;20053;-82
2023/03/03 07:41:33;;;;;;;12.05;8.43;;;1.10;99.90;;;;;;4992945;28;20354;-82
2023/03/03 07:44:11;;;;;;;12.48;9.25;;;1.30;99.90;;;;;;4985925;28;20050;-83
2023/03/03 07:46:42;;;;;;;13.65;9.18;;;1.40;99.90;;;;;;5011813;28;20049;-83
2023/03/03 07:49:33;;;;;;;13.05;9.27;;;1.50;99.90;;;;;;4982663;28;20054;-84
2023/03/03 07:51:59;;;;;;;11.98;8.38;;;1.50;99.90;;;;;;5061264;28;20054;-83
2023/03/03 07:54:31;;;;;;;14.40;8.88;;;1.80;99.90;;;;;;4979549;28;20219;-83
2023/03/03 07:57:17;;;;;;;15.23;9.88;;;2.00;99.90;;;;;;4989646;28;20046;-83
2023/03/03 08:00:07;;;;;;;12.55;8.80;;;2.20;99.90;;;;;;4968440;28;20034;-83
2023/03/03 08:02:52;;;;;;;14.57;8.73;;;2.30;99.90;;;;;;4998780;28;20449;-82
2023/03/03 08:05:36;;;;;;;11.25;8.02;;;2.30;99.90;;;;;;4976066;28;20497;-83
2023/03/03 08:08:08;;;;;;;9.77;7.82;;;2.50;99.90;;;;;;4984668;28;20287;-83
2023/03/03 08:10:50;;;;;;;10.73;7.45;;;2.30;99.90;;;;;;4990081;28;20043;-82
2023/03/03 08:13:19;;;;;;;11.00;7.30;;;2.40;99.90;;;;;;4992599;28;20049;-82
2023/03/03 08:15:48;;;;;;;11.45;7.10;;;2.40;99.90;;;;;;4972410;28;20100;-82
2023/03/03 08:18:22;;;;;;;9.70;6.95;;;2.30;99.90;;;;;;4993069;28;20034;-82
2023/03/03 08:20:51;;;;;;;10.63;7.05;;;2.30;99.90;;;;;;4988089;28;20030;-81
2023/03/03 08:23:27;;;;;;;8.80;7.00;;;2.30;99.90;;;;;;4996025;28;20038;-82
2023/03/03 08:25:53;;;;;;;9.18;7.00;;;2.50;99.90;;;;;;4978955;28;20488;-81
2023/03/03 08:28:19;;;;;;;8.98;7.15;;;2.40;99.90;;;;;;4996771;28;20040;-81
2023/03/03 08:30:46;;;;;;;9.18;6.82;;;2.60;99.90;;;;;;4979652;28;20050;-81
2023/03/03 08:33:16;;;;;;;9.23;7.18;;;2.60;99.90;;;;;;4968216;28;20364;-81
2023/03/03 08:35:45;;;;;;;8.02;6.35;;;2.50;99.90;;;;;;5004422;28;20055;-81
2023/03/03 08:38:13;;;;;;;7.72;6.90;;;2.40;99.90;;;;;;5042696;28;20170;-81
2023/03/03 08:40:45;;;;;;;12.25;7.13;;;2.70;99.90;;;;;;4975520;28;20133;-81
2023/03/03 08:43:15;;;;;;;10.88;6.97;;;2.60;99.90;;;;;;4998649;28;20057;-81
2023/03/03 08:45:43;;;;;;;9.75;7.30;;;2.70;99.90;;;;;;4973399;28;20125;-81
2023/03/03 08:48:09;;;;;;;9.25;7.25;;;2.70;99.90;;;;;;5077005;28;20473;-81
2023/03/03 08:50:39;;;;;;;9.60;7.43;;;2.80;99.90;;;;;;4993219;28;20035;-80
2023/03/03 08:53:05;;;;;;;10.43;6.93;;;3.00;99.90;;;;;;4969108;28;20513;-80
2023/03/03 08:55:31;;;;;;;8.98;6.30;;;3.00;99.90;;;;;;4979093;28;20030;-81
2023/03/03 08:57:57;;;;;;;9.10;6.40;;;2.90;99.90;;;;;;4985487;28;20191;-80
2023/03/03 09:00:25;;;;;;;8.98;6.70;;;3.00;99.90;;;;;;5072748;28;20138;-81
2023/03/03 09:02:54;;;;;;;10.52;6.95;;;3.10;99.90;;;;;;5059093;28;20501;-80
2023/03/03 09:05:21;;;;;;;8.55;6.40;;;3.10;99.90;;;;;;4972965;28;20159;-81
2023/03/03 09:07:48;;;;;;;12.20;7.95;;;3.20;99.90;;;;;;4980404;28;20055;-80
2023/03/03 09:10:16;;;;;;;9.57;7.20;;;3.20;99.90;;;;;;4969275;28;20094;-80
2023/03/03 09:12:47;;;;;;;11.57;6.90;;;3.20;99.90;;;;;;4984688;28;20066;-81
2023/03/03 09:15:18;;;;;;;8.50;6.50;;;3.20;99.90;;;;;;5040809;28;20043;-80
2023/03/03 09:17:45;;;;;;;9.80;6.45;;;3.20;99.90;;;;;;4986734;28;20551;-80
2023/03/03 09:20:51;;;;;;;7.97;6.03;;;3.30;99.90;;;;;;4992958;28;20467;-81
2023/03/03 09:23:32;;;;;;;7.65;5.90;;;3.30;99.90;;;;;;4965899;28;20185;-80
2023/03/03 09:26:21;;;;;;;9.57;6.25;;;3.60;99.90;;;;;;5000391;28;20046;-80
2023/03/03 09:28:48;;;;;;;10.68;6.28;;;3.50;99.90;;;;;;4994138;28;20254;-81
2023/03/03 09:31:40;;;;;;;7.28;6.47;;;3.70;99.90;;;;;;5042656;28;20050;-80
2023/03/03 09:34:21;;;;;;;8.57;6.30;;;3.60;99.90;;;;;;4980998;28;20477;-80
2023/03/03 09:36:48;;;;;;;7.88;6.50;;;3.60;99.90;;;;;;5005913;28;20206;-81
2023/03/03 09:39:25;;;;;;;8.85;6.75;;;3.70;99.90;;;;;;4963264;28;20501;-81
2023/03/03 09:42:22;;;;;;;10.63;6.47;;;4.00;99.90;;;;;;4961846;28;20057;-80
2023/03/03 09:45:26;;;;;;;8.38;5.80;;;3.90;99.90;;;;;;4977449;28;20241;-80
2023/03/03 09:47:51;;;;;;;7.40;6.18;;;4.20;99.90;;;;;;4972828;28;20154;-80
2023/03/03 09:51:00;;;;;;;8.88;5.78;;;4.40;99.90;;;;;;4973077;28;20038;-81
2023/03/03 09:54:06;;;;;;;12.43;6.15;;;4.60;99.90;;;;;;4991095;28;20554;-80
2023/03/03 09:56:36;;;;;;;8.55;5.60;;;4.60;99.90;;;;;;4977244;28;20131;-81
2023/03/03 09:59:14;;;;;;;8.25;6.18;;;4.60;99.90;;;;;;4992848;28;20521;-82
2023/03/03 10:01:52;;;;;;;8.07;5.40;;;4.80;99.90;;;;;;4990628;28;20130;-82
2023/03/03 10:04:39;;;;;;;8.13;5.50;;;5.10;99.90;;;;;;4988933;28;20062;-83
2023/03/03 10:07:30;;;;;;;9.75;5.78;;;5.00;99.90;;;;;;4968815;28;20422;-82
2023/03/03 10:10:14;;;;;;;13.50;6.32;;;5.10;99.90;;;;;;4977167;28;20045;-82
2023/03/03 10:13:08;;;;;;;9.05;5.88;;;5.40;99.90;;;;;;5059608;28;20043;-82
2023/03/03 10:15:49;;;;;;;5.72;5.00;;;5.30;99.90;;;;;;4986558;28;20042;-82
2023/03/03 10:18:29;;;;;;;8.82;5.20;;;5.30;99.90;;;;;;5061502;28;20148;-82
2023/03/03 10:21:15;;;;;;;9.00;5.68;;;5.60;99.90;;;;;;4966256;28;20411;-82
2023/03/03 10:23:54;;;;;;;6.50;5.22;;;6.00;99.90;;;;;;4980006;28;20030;-83
2023/03/03 10:26:20;;;;;;;6.60;4.95;;;6.20;99.90;;;;;;4981381;28;20191;-82
2023/03/03 10:29:04;;;;;;;5.72;4.93;;;6.10;99.90;;;;;;4963035;28;20062;-83
2023/03/03 10:31:48;;;;;;;7.75;5.07;;;6.30;99.90;;;;;;5055600;28;20046;-82
2023/03/03 10:34:40;;;;;;;7.22;4.82;;;6.40;99.90;;;;;;5002405;28;20569;-83
2023/03/03 10:37:23;;;;;;;6.88;4.55;;;6.50;99.90;;;;;;4986519;28;20040;-83
2023/03/03 10:40:31;;;;;;;14.30;6.40;;;6.70;99.90;;;;;;4987773;28;20555;-82
2023/03/03 10:43:32;;;;;;;9.05;4.50;;;6.90;99.90;;;;;;4993323;28;20068;-82
2023/03/03 10:46:25;;;;;;;8.88;4.47;;;7.10;99.90;;;;;;5019664;28;20396;-83
2023/03/03 10:49:00;;;;;;;5.32;3.85;;;7.00;99.90;;;;;;4996393;28;20055;-82
2023/03/03 10:51:37;;;;;;;7.32;4.30;;;7.10;99.90;;;;;;4970598;28;20204;-83
2023/03/03 10:54:31;;;;;;;6.53;3.70;;;7.10;99.90;;;;;;4989292;28;20049;-83
2023/03/03 10:57:12;;;;;;;5.85;4.07;;;7.10;99.90;;;;;;4984318;28;20054;-82
2023/03/03 10:59:59;;;;;;;6.70;3.95;;;7.30;99.90;;;;;;5061632;28;20421;-82
2023/03/03 11:02:28;;;;;;;8.23;4.10;;;7.30;99.90;;;;;;5001157;28;20053;-82
2023/03/03 11:05:09;;;;;;;9.10;3.97;;;7.50;99.90;;;;;;4998968;28;20035;-82
2023/03/03 11:07:47;;;;;;;5.43;4.30;;;7.30;99.90;;;;;;4983676;28;20099;-83
2023/03/03 11:10:31;;;;;;;8.93;4.38;;;7.60;99.90;;;;;;4986349;28;20504;-82
2023/03/03 11:13:12;;;;;;;5.80;3.42;;;7.40;99.90;;;;;;5006333;28;20072;-83
2023/03/03 11:16:14;;;;;;;6.80;3.30;;;7.40;99.90;;;;;;4992551;28;21197;-83
2023/03/03 11:19:19;;;;;;;7.72;3.33;;;7.50;99.90;;;;;;4982674;28;20038;-83
2023/03/03 11:22:28;;;;;;;5.15;3.22;;;7.30;99.90;;;;;;4995835;28;20053;-83
2023/03/03 11:24:53;;;;;;;8.15;3.80;;;7.40;99.90;;;;;;4988787;28;20055;-82
2023/03/03 11:27:57;;;;;;;9.30;2.90;;;7.60;99.90;;;;;;4992845;28;20038;-83
2023/03/03 11:30:44;;;;;;;5.53;2.95;;;7.60;99.90;;;;;;5007839;28;20584;-83
2023/03/03 11:33:19;;;;;;;5.25;2.70;;;7.80;99.90;;;;;;5019869;28;20040;-83
2023/03/03 11:36:10;;;;;;;6.50;2.42;;;7.80;99.90;;;;;;5000139;28;20043;-83
2023/03/03 11:38:55;;;;;;;4.78;2.42;;;7.80;99.90;;;;;;4970252;28;20046;-83
2023/03/03 11:41:21;;;;;;;;;;;7.80;99.90;;;;;;5007936;28;20069;-83
2023/03/03 11:43:51;;;;;;;3.95;2.17;;;7.60;99.90;;;;;;5058745;28;20369;-83
2023/03/03 11:46:36;;;;;;;8.10;2.30;;;7.60;99.90;;;;;;4991226;28;20054;-83
2023/03/03 11:49:31;;;;;;;1.98;1.27;;;7.60;99.90;;;;;;4987786;28;20381;-83
2023/03/03 11:52:35;;;;;;;3.10;1.58;;;7.50;99.90;;;;;;4973845;28;20042;-83
2023/03/03 11:55:06;;;;;;;2.63;1.48;;;7.40;99.90;;;;;;4958017;28;20156;-83
2023/03/03 11:57:59;;;;;;;2.85;1.23;;;7.50;99.90;;;;;;4983375;28;20437;-83
2023/03/03 12:00:39;;;;;;;3.53;1.20;;;7.60;99.90;;;;;;4977280;28;20039;-82
2023/03/03 12:03:18;;;;;;;2.47;1.00;;;7.60;99.90;;;;;;4968430;28;20083;-83
2023/03/03 12:05:47;;;;;;;2.70;1.30;;;7.70;1.00;;;;;;4978076;28;20057;-83
2023/03/03 12:08:13;;;;;;;2.08;1.00;;;7.80;1.00;;;;;;4984505;28;20534;-84
2023/03/03 12:10:57;;;;;;;2.28;1.02;;;7.70;99.90;;;;;;4981548;28;20110;-83
2023/03/03 12:13:50;;;;;;;4.28;1.40;;;7.60;73.30;;;;;;4978669;28;20028;-83
2023/03/03 12:16:41;;;;;;;4.18;1.30;;;7.70;99.90;;;;;;5075026;28;20172;-83
2023/03/03 12:19:33;;;;;;;3.88;1.20;;;8.50;99.90;;;;;;4996570;28;20412;-83
2023/03/03 12:22:24;;;;;;;3.88;0.98;;;9.10;99.90;;;;;;4994005;28;20102;-83
2023/03/03 12:25:36;;;;;;;2.92;0.93;;;8.70;37.20;;;;;;5058817;28;20121;-83
2023/03/03 12:28:16;;;;;;;4.68;1.02;;;8.60;99.90;;;;;;4979932;28;20356;-83
2023/03/03 12:31:01;;;;;;;3.97;1.10;;;8.30;99.90;;;;;;5038399;28;20083;-83
2023/03/03 12:33:48;;;;;;;5.00;1.08;;;8.00;1.00;;;;;;5006481;28;20657;-83
2023/03/03 12:36:20;;;;;;;4.22;1.27;;;8.10;99.90;;;;;;4968540;28;20054;-83
2023/03/03 12:39:31;;;;;;;6.00;1.40;;;8.20;1.00;;;;;;4986213;28;20130;-83
2023/03/03 12:42:22;;;;;;;4.13;1.10;;;8.50;99.90;;;;;;4954688;28;20054;-83
2023/03/03 12:45:16;;;;;;;5.05;1.30;;;8.40;99.90;;;;;;4968676;28;20291;-83
2023/03/03 12:48:00;;;;;;;4.65;1.20;;;8.30;99.90;;;;;;5000805;28;20044;-83
2023/03/03 12:50:54;;;;;;;6.93;1.65;;;8.30;99.90;;;;;;4982988;28;20047;-83
2023/03/03 12:53:51;;;;;;;3.88;1.20;;;8.30;99.90;;;;;;4981458;28;20047;-83
2023/03/03 12:56:32;;;;;;;6.95;1.73;;;8.30;99.90;;;;;;4978764;28;20571;-83
2023/03/03 12:59:10;;;;;;;5.25;1.30;;;8.10;1.00;;;;;;4980461;28;20187;-83
2023/03/03 13:01:58;;;;;;;6.43;1.45;;;8.00;99.90;;;;;;5037961;28;20141;-83
2023/03/03 13:04:53;;;;;;;6.10;1.75;;;8.50;1.00;;;;;;4990499;28;20035;-83
2023/03/03 13:07:40;;;;;;;3.93;1.20;;;8.30;1.00;;;;;;4981900;28;20509;-83
2023/03/03 13:10:38;;;;;;;5.45;1.20;;;8.00;99.90;;;;;;4987211;28;20289;-83
2023/03/03 13:13:29;;;;;;;4.88;1.60;;;7.90;99.90;;;;;;4975301;28;20038;-83
2023/03/03 13:16:32;;;;;;;5.43;1.60;;;7.80;99.90;;;;;;5044157;28;20042;-83
2023/03/03 13:19:14;;;;;;;7.70;1.75;;;8.20;99.90;;;;;;4984454;28;20034;-83